sensor_id;sensor_type;location;lat;lon;timestamp;temperature;humidity
61339;DHT22;47213;52.362;4.606;2023-04-25T00:00:01;9.60;16.40
61339;DHT22;47213;52.362;4.606;2023-04-25T00:05:02;9.70;15.00
61339;DHT22;47213;52.362;4.606;2023-04-25T00:10:01;9.60;15.00
61339;DHT22;47213;52.362;4.606;2023-04-25T00:15:01;9.70;15.60
61339;DHT22;47213;52.362;4.606;2023-04-25T00:20:01;9.60;15.60
61339;DHT22;47213;52.362;4.606;2023-04-25T00:35:01;9.70;9.80
61339;DHT22;47213;52.362;4.606;2023-04-25T00:40:01;9.50;9.80
61339;DHT22;47213;52.362;4.606;2023-04-25T00:45:01;9.40;11.60
61339;DHT22;47213;52.362;4.606;2023-04-25T00:50:01;9.50;11.90
61339;DHT22;47213;52.362;4.606;2023-04-25T00:55:01;9.60;14.20
61339;DHT22;47213;52.362;4.606;2023-04-25T01:00:01;9.50;12.00
61339;DHT22;47213;52.362;4.606;2023-04-25T01:15:01;9.40;7.70
61339;DHT22;47213;52.362;4.606;2023-04-25T01:25:01;9.50;8.00
61339;DHT22;47213;52.362;4.606;2023-04-25T01:40:01;9.40;8.10
61339;DHT22;47213;52.362;4.606;2023-04-25T01:45:01;9.50;4.60
61339;DHT22;47213;52.362;4.606;2023-04-25T01:55:01;9.70;7.50
61339;DHT22;47213;52.362;4.606;2023-04-25T02:00:03;9.50;7.30
61339;DHT22;47213;52.362;4.606;2023-04-25T02:05:01;9.60;7.20
61339;DHT22;47213;52.362;4.606;2023-04-25T02:10:01;9.40;7.20
61339;DHT22;47213;52.362;4.606;2023-04-25T02:15:01;9.50;7.20
61339;DHT22;47213;52.362;4.606;2023-04-25T02:25:02;9.40;9.10
61339;DHT22;47213;52.362;4.606;2023-04-25T02:30:01;9.30;12.20
61339;DHT22;47213;52.362;4.606;2023-04-25T02:35:01;9.20;12.20
61339;DHT22;47213;52.362;4.606;2023-04-25T02:40:01;9.10;14.90
61339;DHT22;47213;52.362;4.606;2023-04-25T02:45:02;9.20;14.90
61339;DHT22;47213;52.362;4.606;2023-04-25T02:50:01;9.10;12.90
61339;DHT22;47213;52.362;4.606;2023-04-25T02:55:01;9.30;10.90
61339;DHT22;47213;52.362;4.606;2023-04-25T03:00:01;9.20;10.90
61339;DHT22;47213;52.362;4.606;2023-04-25T03:05:01;9.40;11.80
61339;DHT22;47213;52.362;4.606;2023-04-25T03:10:01;9.20;10.00
61339;DHT22;47213;52.362;4.606;2023-04-25T03:15:02;9.30;11.50
61339;DHT22;47213;52.362;4.606;2023-04-25T03:20:01;9.20;11.10
61339;DHT22;47213;52.362;4.606;2023-04-25T03:25:01;9.40;9.50
61339;DHT22;47213;52.362;4.606;2023-04-25T03:30:02;9.30;8.00
61339;DHT22;47213;52.362;4.606;2023-04-25T03:50:01;9.20;12.70
61339;DHT22;47213;52.362;4.606;2023-04-25T03:55:01;9.00;12.70
61339;DHT22;47213;52.362;4.606;2023-04-25T04:05:02;9.20;17.80
61339;DHT22;47213;52.362;4.606;2023-04-25T04:10:02;9.10;18.20
61339;DHT22;47213;52.362;4.606;2023-04-25T04:20:02;8.90;18.10
61339;DHT22;47213;52.362;4.606;2023-04-25T04:25:02;8.80;18.10
61339;DHT22;47213;52.362;4.606;2023-04-25T04:30:02;8.60;19.40
61339;DHT22;47213;52.362;4.606;2023-04-25T04:35:02;8.80;19.40
61339;DHT22;47213;52.362;4.606;2023-04-25T05:05:02;9.10;13.10
61339;DHT22;47213;52.362;4.606;2023-04-25T05:15:02;9.20;7.60
61339;DHT22;47213;52.362;4.606;2023-04-25T05:25:02;9.40;6.70
61339;DHT22;47213;52.362;4.606;2023-04-25T05:30:02;9.50;7.80
61339;DHT22;47213;52.362;4.606;2023-04-25T05:35:02;9.60;5.50
61339;DHT22;47213;52.362;4.606;2023-04-25T05:40:02;9.70;3.70
61339;DHT22;47213;52.362;4.606;2023-04-25T05:45:02;9.50;25.00
61339;DHT22;47213;52.362;4.606;2023-04-25T05:55:02;9.70;25.10
61339;DHT22;47213;52.362;4.606;2023-04-25T06:15:02;9.90;21.80
61339;DHT22;47213;52.362;4.606;2023-04-25T06:25:02;10.00;23.50
61339;DHT22;47213;52.362;4.606;2023-04-25T06:30:02;9.80;23.50
61339;DHT22;47213;52.362;4.606;2023-04-25T06:35:02;10.00;20.20
61339;DHT22;47213;52.362;4.606;2023-04-25T06:40:02;10.10;20.60
61339;DHT22;47213;52.362;4.606;2023-04-25T06:45:02;10.00;18.10
61339;DHT22;47213;52.362;4.606;2023-04-25T06:50:02;9.90;18.10
61339;DHT22;47213;52.362;4.606;2023-04-25T06:55:02;9.80;16.30
61339;DHT22;47213;52.362;4.606;2023-04-25T07:00:02;9.70;16.30
61339;DHT22;47213;52.362;4.606;2023-04-25T07:05:02;10.00;15.40
61339;DHT22;47213;52.362;4.606;2023-04-25T07:10:02;10.10;15.40
61339;DHT22;47213;52.362;4.606;2023-04-25T07:15:02;10.30;15.70
61339;DHT22;47213;52.362;4.606;2023-04-25T07:20:02;10.40;16.50
61339;DHT22;47213;52.362;4.606;2023-04-25T07:25:02;10.50;13.80
61339;DHT22;47213;52.362;4.606;2023-04-25T07:30:02;10.30;13.80
61339;DHT22;47213;52.362;4.606;2023-04-25T07:35:02;10.20;12.80
61339;DHT22;47213;52.362;4.606;2023-04-25T07:40:03;10.10;13.30
61339;DHT22;47213;52.362;4.606;2023-04-25T07:50:02;10.20;16.50
61339;DHT22;47213;52.362;4.606;2023-04-25T07:55:02;10.60;19.70
61339;DHT22;47213;52.362;4.606;2023-04-25T08:00:02;10.70;13.50
61339;DHT22;47213;52.362;4.606;2023-04-25T08:05:02;10.80;13.50
61339;DHT22;47213;52.362;4.606;2023-04-25T08:15:03;10.90;9.90
61339;DHT22;47213;52.362;4.606;2023-04-25T08:25:02;11.20;8.90
61339;DHT22;47213;52.362;4.606;2023-04-25T08:30:03;10.80;13.70
61339;DHT22;47213;52.362;4.606;2023-04-25T08:35:02;10.60;13.70
61339;DHT22;47213;52.362;4.606;2023-04-25T08:40:03;10.30;16.90
61339;DHT22;47213;52.362;4.606;2023-04-25T08:45:02;9.90;18.70
61339;DHT22;47213;52.362;4.606;2023-04-25T08:50:03;9.10;18.70
61339;DHT22;47213;52.362;4.606;2023-04-25T08:55:02;8.80;10.30
61339;DHT22;47213;52.362;4.606;2023-04-25T09:00:02;9.10;13.90
61339;DHT22;47213;52.362;4.606;2023-04-25T09:05:02;9.70;17.50
61339;DHT22;47213;52.362;4.606;2023-04-25T09:10:02;10.30;16.40
61339;DHT22;47213;52.362;4.606;2023-04-25T09:20:06;10.80;6.40
61339;DHT22;47213;52.362;4.606;2023-04-25T09:25:03;11.00;4.10
61339;DHT22;47213;52.362;4.606;2023-04-25T09:30:03;10.90;24.50
61339;DHT22;47213;52.362;4.606;2023-04-25T09:35:02;11.30;24.50
61339;DHT22;47213;52.362;4.606;2023-04-25T09:40:04;11.40;21.50
61339;DHT22;47213;52.362;4.606;2023-04-25T09:45:02;11.50;17.90
61339;DHT22;47213;52.362;4.606;2023-04-25T09:50:02;11.40;18.70
61339;DHT22;47213;52.362;4.606;2023-04-25T09:55:02;12.20;17.00
61339;DHT22;47213;52.362;4.606;2023-04-25T10:00:02;12.00;10.50
61339;DHT22;47213;52.362;4.606;2023-04-25T10:05:05;11.60;17.90
61339;DHT22;47213;52.362;4.606;2023-04-25T10:10:03;11.40;18.50
61339;DHT22;47213;52.362;4.606;2023-04-25T10:15:02;-1.40;18.50
61339;DHT22;47213;52.362;4.606;2023-04-25T10:20:03;-4.40;8.80
61339;DHT22;47213;52.362;4.606;2023-04-25T10:25:03;-6.40;22.90
61339;DHT22;47213;52.362;4.606;2023-04-25T10:35:10;-8.80;7.50
61339;DHT22;47213;52.362;4.606;2023-04-25T10:40:08;-9.20;2.80
61339;DHT22;47213;52.362;4.606;2023-04-25T10:45:04;-10.30;2.80
61339;DHT22;47213;52.362;4.606;2023-04-25T10:50:04;-10.70;1.90
61339;DHT22;47213;52.362;4.606;2023-04-25T10:55:03;-11.80;25.50
61339;DHT22;47213;52.362;4.606;2023-04-25T11:05:03;1.60;22.10
61339;DHT22;47213;52.362;4.606;2023-04-25T11:10:03;1.50;20.80
61339;DHT22;47213;52.362;4.606;2023-04-25T11:15:04;-10.50;20.80
61339;DHT22;47213;52.362;4.606;2023-04-25T11:20:03;-9.60;1.00
61339;DHT22;47213;52.362;4.606;2023-04-25T11:25:04;1.00;1.00
61339;DHT22;47213;52.362;4.606;2023-04-25T11:30:18;-11.60;22.20
61339;DHT22;47213;52.362;4.606;2023-04-25T11:35:03;-9.50;22.20
61339;DHT22;47213;52.362;4.606;2023-04-25T11:40:03;-11.90;1.40
61339;DHT22;47213;52.362;4.606;2023-04-25T11:45:03;1.90;20.70
61339;DHT22;47213;52.362;4.606;2023-04-25T11:50:03;-12.60;20.60
61339;DHT22;47213;52.362;4.606;2023-04-25T11:55:05;-10.30;20.60
61339;DHT22;47213;52.362;4.606;2023-04-25T12:00:05;-7.90;1.20
61339;DHT22;47213;52.362;4.606;2023-04-25T12:05:06;-7.00;1.20
61339;DHT22;47213;52.362;4.606;2023-04-25T12:10:05;-6.00;2.40
61339;DHT22;47213;52.362;4.606;2023-04-25T12:15:22;-4.90;6.40
61339;DHT22;47213;52.362;4.606;2023-04-25T12:20:07;-4.60;6.40
61339;DHT22;47213;52.362;4.606;2023-04-25T12:25:04;-4.80;6.60
61339;DHT22;47213;52.362;4.606;2023-04-25T12:30:03;-4.40;7.60
61339;DHT22;47213;52.362;4.606;2023-04-25T12:35:04;-4.30;7.60
61339;DHT22;47213;52.362;4.606;2023-04-25T12:40:03;-3.50;9.10
61339;DHT22;47213;52.362;4.606;2023-04-25T12:45:03;-3.00;8.90
61339;DHT22;47213;52.362;4.606;2023-04-25T12:55:03;-3.40;10.10
61339;DHT22;47213;52.362;4.606;2023-04-25T13:00:03;-3.20;10.10
61339;DHT22;47213;52.362;4.606;2023-04-25T13:05:03;-2.40;12.50
61339;DHT22;47213;52.362;4.606;2023-04-25T13:10:03;-1.30;18.50
61339;DHT22;47213;52.362;4.606;2023-04-25T13:15:03;-2.40;15.20
61339;DHT22;47213;52.362;4.606;2023-04-25T13:20:04;-2.20;15.20
61339;DHT22;47213;52.362;4.606;2023-04-25T13:25:03;-1.80;13.70
61339;DHT22;47213;52.362;4.606;2023-04-25T13:30:03;-1.70;14.60
61339;DHT22;47213;52.362;4.606;2023-04-25T13:35:04;-2.40;13.80
61339;DHT22;47213;52.362;4.606;2023-04-25T13:40:04;-2.20;11.80
61339;DHT22;47213;52.362;4.606;2023-04-25T13:45:03;-2.50;12.70
61339;DHT22;47213;52.362;4.606;2023-04-25T13:50:03;-2.70;12.70
61339;DHT22;47213;52.362;4.606;2023-04-25T13:55:03;-2.50;13.50
61339;DHT22;47213;52.362;4.606;2023-04-25T14:00:04;-2.40;13.00
61339;DHT22;47213;52.362;4.606;2023-04-25T14:10:03;-2.20;14.60
61339;DHT22;47213;52.362;4.606;2023-04-25T14:15:03;-2.60;14.60
61339;DHT22;47213;52.362;4.606;2023-04-25T14:20:03;-2.70;14.70
61339;DHT22;47213;52.362;4.606;2023-04-25T14:25:03;-1.80;13.90
61339;DHT22;47213;52.362;4.606;2023-04-25T14:30:03;-1.70;15.30
61339;DHT22;47213;52.362;4.606;2023-04-25T14:35:03;-1.50;15.30
61339;DHT22;47213;52.362;4.606;2023-04-25T14:40:03;-0.90;21.90
61339;DHT22;47213;52.362;4.606;2023-04-25T14:45:04;-1.50;8.20
61339;DHT22;47213;52.362;4.606;2023-04-25T14:50:03;-2.20;2.70
61339;DHT22;47213;52.362;4.606;2023-04-25T15:00:03;-2.30;21.70
61339;DHT22;47213;52.362;4.606;2023-04-25T15:05:03;-2.00;15.00
61339;DHT22;47213;52.362;4.606;2023-04-25T15:15:03;-1.90;13.80
61339;DHT22;47213;52.362;4.606;2023-04-25T15:20:04;-1.80;14.60
61339;DHT22;47213;52.362;4.606;2023-04-25T15:25:03;-1.70;14.10
61339;DHT22;47213;52.362;4.606;2023-04-25T15:35:04;-1.60;13.20
61339;DHT22;47213;52.362;4.606;2023-04-25T15:40:05;-1.50;14.30
61339;DHT22;47213;52.362;4.606;2023-04-25T15:45:04;-1.20;14.10
61339;DHT22;47213;52.362;4.606;2023-04-25T15:50:04;-1.10;12.80
61339;DHT22;47213;52.362;4.606;2023-04-25T15:55:04;-1.40;13.30
61339;DHT22;47213;52.362;4.606;2023-04-25T16:05:03;-1.70;13.70
61339;DHT22;47213;52.362;4.606;2023-04-25T16:10:04;-1.10;14.90
61339;DHT22;47213;52.362;4.606;2023-04-25T16:20:04;-1.00;17.80
61339;DHT22;47213;52.362;4.606;2023-04-25T16:25:04;-0.80;17.80
61339;DHT22;47213;52.362;4.606;2023-04-25T16:30:05;-0.70;16.60
61339;DHT22;47213;52.362;4.606;2023-04-25T16:40:04;-0.60;19.20
61339;DHT22;47213;52.362;4.606;2023-04-25T16:45:04;-0.30;19.20
61339;DHT22;47213;52.362;4.606;2023-04-25T16:50:04;-0.50;20.20
61339;DHT22;47213;52.362;4.606;2023-04-25T17:00:04;-0.40;21.00
61339;DHT22;47213;52.362;4.606;2023-04-25T17:05:04;-0.50;21.40
61339;DHT22;47213;52.362;4.606;2023-04-25T17:15:04;-0.30;21.90
61339;DHT22;47213;52.362;4.606;2023-04-25T17:20:04;0.00;22.90
61339;DHT22;47213;52.362;4.606;2023-04-25T17:25:04;12.70;22.90
61339;DHT22;47213;52.362;4.606;2023-04-25T17:30:04;12.60;21.60
61339;DHT22;47213;52.362;4.606;2023-04-25T17:40:04;12.70;22.00
61339;DHT22;47213;52.362;4.606;2023-04-25T17:45:04;12.60;22.00
61339;DHT22;47213;52.362;4.606;2023-04-25T17:50:04;12.20;19.30
61339;DHT22;47213;52.362;4.606;2023-04-25T18:00:04;12.10;20.60
61339;DHT22;47213;52.362;4.606;2023-04-25T18:05:04;11.70;21.20
61339;DHT22;47213;52.362;4.606;2023-04-25T18:15:04;11.80;22.30
61339;DHT22;47213;52.362;4.606;2023-04-25T18:20:05;11.30;22.30
61339;DHT22;47213;52.362;4.606;2023-04-25T18:30:04;11.20;24.80
61339;DHT22;47213;52.362;4.606;2023-04-25T18:40:04;11.40;25.40
61339;DHT22;47213;52.362;4.606;2023-04-25T18:45:04;11.60;25.40
61339;DHT22;47213;52.362;4.606;2023-04-25T18:55:04;11.40;7.70
61339;DHT22;47213;52.362;4.606;2023-04-25T19:00:04;11.30;7.40
61339;DHT22;47213;52.362;4.606;2023-04-25T19:05:04;11.10;9.10
61339;DHT22;47213;52.362;4.606;2023-04-25T19:10:04;11.20;9.60
61339;DHT22;47213;52.362;4.606;2023-04-25T19:15:04;11.10;9.60
61339;DHT22;47213;52.362;4.606;2023-04-25T19:25:04;11.20;8.50
61339;DHT22;47213;52.362;4.606;2023-04-25T19:30:04;11.10;8.00
61339;DHT22;47213;52.362;4.606;2023-04-25T19:35:05;10.90;8.00
61339;DHT22;47213;52.362;4.606;2023-04-25T19:40:04;10.80;7.60
61339;DHT22;47213;52.362;4.606;2023-04-25T19:45:04;10.70;5.00
61339;DHT22;47213;52.362;4.606;2023-04-25T20:05:04;10.50;4.20
61339;DHT22;47213;52.362;4.606;2023-04-25T20:15:04;10.60;3.50
61339;DHT22;47213;52.362;4.606;2023-04-25T20:25:05;10.40;4.20
61339;DHT22;47213;52.362;4.606;2023-04-25T20:30:05;10.50;4.10
61339;DHT22;47213;52.362;4.606;2023-04-25T20:35:05;10.40;3.80
61339;DHT22;47213;52.362;4.606;2023-04-25T20:45:04;10.60;3.70
61339;DHT22;47213;52.362;4.606;2023-04-25T20:50:05;10.50;3.70
61339;DHT22;47213;52.362;4.606;2023-04-25T20:55:05;10.60;3.30
61339;DHT22;47213;52.362;4.606;2023-04-25T21:00:04;10.50;2.20
61339;DHT22;47213;52.362;4.606;2023-04-25T21:10:04;10.40;3.30
61339;DHT22;47213;52.362;4.606;2023-04-25T21:15:04;10.10;2.90
61339;DHT22;47213;52.362;4.606;2023-04-25T21:20:04;10.30;5.00
61339;DHT22;47213;52.362;4.606;2023-04-25T21:25:04;10.40;5.00
61339;DHT22;47213;52.362;4.606;2023-04-25T21:30:04;10.20;4.40
61339;DHT22;47213;52.362;4.606;2023-04-25T21:35:05;10.30;4.30
61339;DHT22;47213;52.362;4.606;2023-04-25T21:40:05;10.10;4.30
61339;DHT22;47213;52.362;4.606;2023-04-25T21:45:05;9.90;4.60
61339;DHT22;47213;52.362;4.606;2023-04-25T22:00:05;9.80;6.20
61339;DHT22;47213;52.362;4.606;2023-04-25T22:05:04;9.90;8.10
61339;DHT22;47213;52.362;4.606;2023-04-25T22:15:04;10.00;6.40
61339;DHT22;47213;52.362;4.606;2023-04-25T22:20:05;10.10;6.40
61339;DHT22;47213;52.362;4.606;2023-04-25T22:25:05;9.90;5.90
61339;DHT22;47213;52.362;4.606;2023-04-25T22:30:05;10.00;7.40
61339;DHT22;47213;52.362;4.606;2023-04-25T22:35:05;9.80;7.80
61339;DHT22;47213;52.362;4.606;2023-04-25T22:40:05;9.50;9.80
61339;DHT22;47213;52.362;4.606;2023-04-25T22:45:05;9.40;12.00
61339;DHT22;47213;52.362;4.606;2023-04-25T22:55:05;9.30;12.20
61339;DHT22;47213;52.362;4.606;2023-04-25T23:05:04;9.10;14.00
61339;DHT22;47213;52.362;4.606;2023-04-25T23:10:06;9.20;14.30
61339;DHT22;47213;52.362;4.606;2023-04-25T23:15:05;9.30;13.70
61339;DHT22;47213;52.362;4.606;2023-04-25T23:20:05;9.40;13.70
61339;DHT22;47213;52.362;4.606;2023-04-25T23:25:05;9.20;20.90
61339;DHT22;47213;52.362;4.606;2023-04-25T23:30:05;9.30;20.90
61339;DHT22;47213;52.362;4.606;2023-04-25T23:40:05;9.20;3.60
61339;DHT22;47213;52.362;4.606;2023-04-25T23:45:05;9.10;6.40
61339;DHT22;47213;52.362;4.606;2023-04-25T23:55:05;9.00;7.30
